Terminal Aerodrome Forecast
Issued by NWS Charleston, WV

Current Version | Previous Version | Graphics & Text | Print | Product List | Glossary On
Versions: 1 2 3 4 5 6 7 8 9 10 11 12 13 14 15 16 17 18 19 20 21 22
000
FTUS41 KRLX 022342
TAFEKN
TAF
KEKN 022342Z 0300/0324 VRB03KT P6SM SCT045
     FM030300 00000KT 4SM BR SCT045
     FM030500 00000KT 2SM BR SCT045
     FM030800 00000KT 1SM BR BKN003
     FM031300 00000KT 4SM BR SCT040
     FM031400 00000KT P6SM BKN040
     FM031600 28004KT P6SM VCTS BKN035CB
     FM032300 VRB03KT P6SM VCTS SCT040CB=

USA.gov is the U.S. government's official web portal to all federal, state and local government web resources and services.